Isfahan International Airport

Airport
ICAO code: 
OIFM
IATA Code: 
IFN
Summary
ICAO Region: 
MID
Territory: 
Location: 
Qahjavarestan, Isfahan Province
Serving: 
Isfahan
Elevation: 
5059 ft
Coordinates: 
Aerial View: 
32° 44' 50.34" N, 51° 52' 19.646" E
Metar
Observation
OIFM 191430Z 06002KT CAVOK 03/M14 Q1018 A3006
Station
Esfahan
Date/Time
2022-01-19 14:30:00
Wind direction
60°
Wind speed
02 kts
Lowest cloud amount
clouds and visibility OK
Temperature
3°C
Dew point
-14°C
Humidity
27%
QNH
1018 hPa
Weather condition
n/a

International airport 15km north east of the city of Isfahan, Iran.

Climatology

Cold semi-arid climate (Köppen climate classification BWk).

Runways

Designator Length Width Surface Rops
08L/26R 4397 45 ASP Yes/Yes
08R/26L 4397 45 ASP Yes/Yes
Airport map: 
Aerial View: 

Accidents and Serious Incidents at or in the vicinity of OIFM

SKYbrary Partners:

Safety knowledge contributed by: